Time;durP1;ratioP1;P1;durP2;ratioP2;P2;SDS_P1;SDS_P2;PMS_P1;PMS_P2;Temp;Humidity;BMP_temperature;BMP_pressure;BME280_temperature;BME280_humidity;BME280_pressure;Samples;Min_cycle;Max_cycle;Signal;HPM_P1;HPM_P2
2022/09/27 00:00:56;;;;;;;119.10;25.13;;;17.90;99.90;;;;;;5024826;28;20110;-53
2022/09/27 00:03:22;;;;;;;161.20;26.63;;;17.90;99.90;;;;;;4956799;28;20034;-52
2022/09/27 00:05:48;;;;;;;249.23;28.95;;;17.90;99.90;;;;;;4942602;28;20046;-53
2022/09/27 00:08:13;;;;;;;226.48;27.33;;;17.90;99.90;;;;;;4990366;28;20172;-53
2022/09/27 00:10:39;;;;;;;233.07;29.08;;;17.80;99.90;;;;;;4958083;28;20042;-53
2022/09/27 00:13:05;;;;;;;253.80;26.65;;;17.70;99.90;;;;;;4985209;28;20035;-53
2022/09/27 00:15:31;;;;;;;313.27;29.45;;;17.60;99.90;;;;;;4942033;28;20041;-53
2022/09/27 00:17:56;;;;;;;595.88;39.78;;;17.50;99.90;;;;;;4989480;28;20042;-53
2022/09/27 00:20:22;;;;;;;323.17;28.80;;;17.70;99.90;;;;;;4991016;28;20025;-52
2022/09/27 00:22:48;;;;;;;385.75;33.33;;;17.70;99.90;;;;;;4972747;28;20078;-53
2022/09/27 00:25:15;;;;;;;229.77;29.98;;;17.80;99.90;;;;;;4972084;28;20085;-53
2022/09/27 00:27:40;;;;;;;302.80;27.98;;;17.80;99.90;;;;;;4971848;28;20402;-53
2022/09/27 00:30:07;;;;;;;322.77;30.65;;;17.60;99.90;;;;;;4954902;28;20129;-52
2022/09/27 00:32:33;;;;;;;316.25;29.92;;;17.40;99.90;;;;;;4906531;28;20151;-53
2022/09/27 00:34:58;;;;;;;375.67;33.53;;;17.40;99.90;;;;;;4994289;28;20069;-54
2022/09/27 00:37:26;;;;;;;348.20;29.52;;;17.40;99.90;;;;;;5042790;28;20034;-54
2022/09/27 00:39:52;;;;;;;380.88;36.25;;;17.30;99.90;;;;;;5007666;28;20056;-54
2022/09/27 00:42:18;;;;;;;356.33;37.70;;;17.30;99.90;;;;;;5003648;28;20037;-52
2022/09/27 00:45:10;;;;;;;331.00;34.22;;;17.30;99.90;;;;;;5008282;28;20477;-53
2022/09/27 00:47:58;;;;;;;467.40;39.40;;;17.40;99.90;;;;;;5012470;28;20034;-53
2022/09/27 00:50:31;;;;;;;361.77;35.60;;;17.60;99.90;;;;;;5000674;28;20026;-53
2022/09/27 00:53:08;;;;;;;221.60;27.48;;;17.40;99.90;;;;;;5009747;28;20385;-53
2022/09/27 00:55:39;;;;;;;246.82;29.80;;;17.20;99.90;;;;;;5010585;28;20743;-53
2022/09/27 00:58:07;;;;;;;562.63;40.30;;;17.10;99.90;;;;;;5006261;28;20124;-53
2022/09/27 01:00:33;;;;;;;379.20;34.10;;;17.20;99.90;;;;;;5006090;28;20041;-53
2022/09/27 01:03:02;;;;;;;260.70;34.40;;;17.40;99.90;;;;;;5008963;28;20066;-53
2022/09/27 01:05:28;;;;;;;187.88;29.50;;;17.60;99.90;;;;;;5005796;28;20026;-53
2022/09/27 01:07:59;;;;;;;407.73;33.03;;;17.70;99.90;;;;;;5012621;28;20084;-53
2022/09/27 01:10:30;;;;;;;293.88;32.15;;;17.70;99.90;;;;;;5011758;28;20130;-53
2022/09/27 01:13:19;;;;;;;200.13;28.20;;;17.70;99.90;;;;;;5011934;28;20081;-53
2022/09/27 01:16:11;;;;;;;111.30;25.35;;;17.80;99.90;;;;;;4973147;28;20034;-53
2022/09/27 01:19:03;;;;;;;168.27;27.10;;;17.80;99.90;;;;;;4970717;28;20042;-54
2022/09/27 01:21:51;;;;;;;276.13;27.58;;;17.80;99.90;;;;;;4973520;28;20039;-54
2022/09/27 01:24:30;;;;;;;337.92;28.83;;;17.90;99.90;;;;;;4967256;28;20035;-53
2022/09/27 01:27:18;;;;;;;267.35;30.70;;;17.90;99.90;;;;;;4973924;28;20055;-53
2022/09/27 01:29:47;;;;;;;344.30;31.48;;;17.90;99.90;;;;;;4973561;28;20057;-53
2022/09/27 01:32:33;;;;;;;271.17;26.95;;;17.90;99.90;;;;;;4974105;28;20038;-53
2022/09/27 01:35:05;;;;;;;282.42;25.33;;;17.90;99.90;;;;;;4972577;28;20637;-53
2022/09/27 01:37:52;;;;;;;97.72;21.27;;;17.90;99.90;;;;;;4973616;28;20462;-53
2022/09/27 01:40:36;;;;;;;166.38;23.58;;;17.90;99.90;;;;;;4974049;28;20041;-52
2022/09/27 01:43:28;;;;;;;143.80;24.42;;;17.70;99.90;;;;;;4970077;28;20019;-52
2022/09/27 01:45:58;;;;;;;168.88;25.02;;;17.30;99.90;;;;;;4972603;28;20050;-53
2022/09/27 01:48:33;;;;;;;152.93;22.40;;;17.40;99.90;;;;;;4973403;28;20031;-53
2022/09/27 01:51:16;;;;;;;151.43;24.38;;;17.40;99.90;;;;;;4973501;28;20050;-54
2022/09/27 01:53:47;;;;;;;209.25;26.48;;;17.50;99.90;;;;;;5007141;28;20037;-54
2022/09/27 01:56:21;;;;;;;124.47;21.08;;;17.40;99.90;;;;;;5002722;28;20421;-55
2022/09/27 01:58:55;;;;;;;137.70;20.33;;;17.40;99.90;;;;;;5006538;28;20024;-55
2022/09/27 02:01:23;;;;;;;115.68;23.30;;;17.10;99.90;;;;;;5004986;28;20466;-54
2022/09/27 02:03:51;;;;;;;167.38;24.83;;;17.10;99.90;;;;;;5010065;28;20084;-53
2022/09/27 02:06:32;;;;;;;158.95;25.30;;;17.00;99.90;;;;;;5004977;28;20081;-53
2022/09/27 02:09:18;;;;;;;124.60;22.33;;;16.90;99.90;;;;;;5005221;28;20027;-53
2022/09/27 02:11:51;;;;;;;126.93;24.60;;;16.90;99.90;;;;;;5005660;28;20080;-54
2022/09/27 02:14:28;;;;;;;93.35;16.90;;;16.90;99.90;;;;;;5004572;28;20585;-54
2022/09/27 02:17:03;;;;;;;108.72;21.30;;;16.60;99.90;;;;;;4992349;28;20038;-54
2022/09/27 02:19:48;;;;;;;102.43;22.17;;;16.60;99.90;;;;;;4989587;28;20152;-54
2022/09/27 02:22:31;;;;;;;126.55;22.30;;;16.60;99.90;;;;;;4989202;28;20030;-54
2022/09/27 02:25:09;;;;;;;97.05;23.25;;;16.80;99.90;;;;;;4992490;28;20027;-54
2022/09/27 02:27:44;;;;;;;106.18;22.13;;;16.70;99.90;;;;;;4991138;28;20069;-54
2022/09/27 02:30:12;;;;;;;81.40;21.83;;;16.70;99.90;;;;;;4990656;28;20116;-54
2022/09/27 02:32:39;;;;;;;91.45;23.05;;;16.50;99.90;;;;;;4972859;28;20159;-53
2022/09/27 02:35:28;;;;;;;83.13;24.45;;;16.50;99.90;;;;;;4972127;28;20490;-53
2022/09/27 02:37:54;;;;;;;43.72;18.70;;;16.70;99.90;;;;;;4971726;28;20097;-53
2022/09/27 02:40:21;;;;;;;41.35;19.98;;;16.90;99.90;;;;;;4957853;28;20434;-53
2022/09/27 02:42:47;;;;;;;50.63;21.30;;;17.00;99.90;;;;;;4969332;28;20174;-53
2022/09/27 02:45:15;;;;;;;45.53;22.38;;;17.10;99.90;;;;;;4953597;28;20482;-53
2022/09/27 02:47:58;;;;;;;37.95;18.27;;;17.00;99.90;;;;;;4989311;28;20045;-53
2022/09/27 02:50:50;;;;;;;31.25;16.50;;;16.60;99.90;;;;;;5011935;28;20062;-54
2022/09/27 02:53:25;;;;;;;26.85;17.00;;;16.50;99.90;;;;;;5010891;28;20165;-53
2022/09/27 02:56:09;;;;;;;27.10;15.07;;;16.50;99.90;;;;;;5011919;28;20034;-53
2022/09/27 02:58:46;;;;;;;28.13;17.65;;;16.40;99.90;;;;;;5010986;28;20038;-53
2022/09/27 03:01:44;;;;;;;32.40;21.38;;;16.40;99.90;;;;;;5011279;28;20527;-53
2022/09/27 03:04:33;;;;;;;35.40;20.70;;;16.60;99.90;;;;;;5005735;28;20046;-53
2022/09/27 03:07:00;;;;;;;32.08;19.02;;;16.70;99.90;;;;;;5000314;28;20045;-53
2022/09/27 03:09:38;;;;;;;31.27;22.15;;;16.80;99.90;;;;;;5007364;28;20108;-53
2022/09/27 03:12:04;;;;;;;51.08;30.95;;;16.90;99.90;;;;;;5011883;28;20515;-54
2022/09/27 03:14:30;;;;;;;36.03;24.52;;;17.10;99.90;;;;;;5009742;28;20030;-54
2022/09/27 03:16:56;;;;;;;36.50;22.77;;;17.20;99.90;;;;;;5008138;28;20697;-53
2022/09/27 03:19:23;;;;;;;43.38;24.27;;;17.20;99.90;;;;;;5010888;28;20061;-54
2022/09/27 03:21:49;;;;;;;38.47;28.00;;;17.20;99.90;;;;;;5005997;28;20073;-54
2022/09/27 03:24:14;;;;;;;57.83;26.67;;;17.20;99.90;;;;;;5007287;28;20026;-54
2022/09/27 03:26:40;;;;;;;110.68;40.17;;;17.30;99.90;;;;;;5001903;28;20482;-54
2022/09/27 03:29:06;;;;;;;98.10;26.38;;;17.40;99.90;;;;;;5008062;28;20117;-53
2022/09/27 03:31:32;;;;;;;138.02;48.03;;;17.50;99.90;;;;;;5008645;28;20022;-54
2022/09/27 03:33:58;;;;;;;97.15;26.38;;;17.50;99.90;;;;;;5009131;28;20036;-55
2022/09/27 03:36:23;;;;;;;123.70;27.65;;;17.60;99.90;;;;;;5005032;28;20026;-54
2022/09/27 03:38:49;;;;;;;162.40;52.00;;;17.40;99.90;;;;;;5008954;28;20113;-54
2022/09/27 03:41:15;;;;;;;131.45;28.25;;;17.40;99.90;;;;;;4975310;28;20482;-53
2022/09/27 03:43:41;;;;;;;83.20;32.17;;;17.30;99.90;;;;;;4977111;28;20482;-53
2022/09/27 03:46:06;;;;;;;312.42;38.20;;;17.30;99.90;;;;;;5006423;28;20560;-53
2022/09/27 03:48:32;;;;;;;168.75;29.92;;;17.30;99.90;;;;;;5003223;28;20030;-53
2022/09/27 03:50:58;;;;;;;306.92;34.75;;;17.30;99.90;;;;;;5004441;28;20126;-53
2022/09/27 03:53:24;;;;;;;90.05;27.73;;;17.50;99.90;;;;;;4989479;28;20057;-53
2022/09/27 03:55:49;;;;;;;133.73;29.33;;;17.60;99.90;;;;;;5005303;28;20038;-53
2022/09/27 03:58:15;;;;;;;103.35;29.42;;;17.70;99.90;;;;;;5006675;28;20025;-53
2022/09/27 04:00:42;;;;;;;303.63;36.10;;;17.70;99.90;;;;;;4972745;28;20035;-53
2022/09/27 04:03:09;;;;;;;346.23;36.88;;;17.70;99.90;;;;;;4971512;28;20042;-53
2022/09/27 04:05:36;;;;;;;201.68;32.53;;;17.70;99.90;;;;;;4971311;28;20060;-54
2022/09/27 04:08:02;;;;;;;350.15;39.88;;;17.80;99.90;;;;;;4966446;28;20402;-53
2022/09/27 04:10:27;;;;;;;168.60;32.25;;;17.80;99.90;;;;;;4970341;28;20042;-53
2022/09/27 04:12:53;;;;;;;152.98;31.30;;;17.80;99.90;;;;;;4970855;28;20046;-53
2022/09/27 04:15:20;;;;;;;209.68;31.65;;;17.80;99.90;;;;;;4970631;28;20088;-53
2022/09/27 04:17:45;;;;;;;215.18;32.90;;;17.90;99.90;;;;;;4969625;28;20522;-53
2022/09/27 04:20:11;;;;;;;102.65;30.63;;;17.80;99.90;;;;;;4971736;28;20054;-53
2022/09/27 04:22:42;;;;;;;137.63;30.90;;;17.80;99.90;;;;;;4970972;28;20039;-53
2022/09/27 04:25:09;;;;;;;205.40;35.95;;;17.90;99.90;;;;;;4970970;28;20406;-54
2022/09/27 04:27:35;;;;;;;184.63;35.30;;;17.80;99.90;;;;;;4966553;28;20138;-53
2022/09/27 04:30:01;;;;;;;186.82;36.35;;;17.80;99.90;;;;;;4971792;28;20118;-53
2022/09/27 04:32:27;;;;;;;207.65;37.22;;;17.90;99.90;;;;;;5013750;28;20030;-53
2022/09/27 04:37:37;;;;;;;120.53;31.80;;;17.90;99.90;;;;;;5008430;28;20083;-54
2022/09/27 04:40:04;;;;;;;217.35;51.38;;;17.90;99.90;;;;;;5010635;28;20503;-53
2022/09/27 04:42:30;;;;;;;171.15;52.97;;;17.70;99.90;;;;;;5009231;28;20034;-54
2022/09/27 04:44:56;;;;;;;189.55;51.00;;;17.50;99.90;;;;;;5012632;28;20366;-53
2022/09/27 04:47:21;;;;;;;237.07;59.65;;;17.50;99.90;;;;;;5007183;28;20041;-53
2022/09/27 04:49:48;;;;;;;285.13;65.75;;;17.50;99.90;;;;;;5011543;28;20034;-53
2022/09/27 04:52:14;;;;;;;233.52;63.28;;;17.70;99.90;;;;;;5012997;28;20200;-53
2022/09/27 04:54:41;;;;;;;179.57;44.80;;;17.70;99.90;;;;;;5004920;28;20030;-53
2022/09/27 04:57:07;;;;;;;88.00;34.15;;;17.60;99.90;;;;;;5013557;28;20127;-53
2022/09/27 04:59:32;;;;;;;80.97;30.15;;;17.50;99.90;;;;;;5021881;28;20482;-53
2022/09/27 05:01:59;;;;;;;77.05;29.75;;;17.50;99.90;;;;;;4997129;28;20037;-53
2022/09/27 05:04:26;;;;;;;90.07;29.73;;;17.60;99.90;;;;;;5004533;28;20026;-53
2022/09/27 05:06:52;;;;;;;95.20;28.38;;;17.50;99.90;;;;;;5007562;28;20120;-53
2022/09/27 05:09:18;;;;;;;82.15;27.45;;;17.40;99.90;;;;;;5009601;28;20389;-53
2022/09/27 05:11:44;;;;;;;83.53;26.35;;;17.40;99.90;;;;;;5012464;28;20486;-54
2022/09/27 05:14:10;;;;;;;84.20;24.10;;;17.40;99.90;;;;;;5009795;28;20108;-54
2022/09/27 05:16:36;;;;;;;70.60;23.40;;;17.40;99.90;;;;;;5009940;28;20105;-55
2022/09/27 05:19:03;;;;;;;88.60;23.08;;;17.50;99.90;;;;;;5008965;28;20113;-53
2022/09/27 05:21:30;;;;;;;69.47;22.27;;;17.50;99.90;;;;;;5027781;28;20369;-53
2022/09/27 05:23:56;;;;;;;120.40;23.42;;;17.40;99.90;;;;;;5006660;28;20121;-53
2022/09/27 05:26:22;;;;;;;94.85;23.45;;;17.40;99.90;;;;;;5006426;28;20030;-53
2022/09/27 05:28:48;;;;;;;91.13;20.80;;;17.40;99.90;;;;;;5011456;28;20030;-53
2022/09/27 05:31:15;;;;;;;74.53;19.05;;;17.40;99.90;;;;;;4993768;28;20140;-53
2022/09/27 05:33:41;;;;;;;68.82;18.40;;;17.40;99.90;;;;;;5017027;28;20038;-53
2022/09/27 05:36:08;;;;;;;72.53;16.73;;;17.40;99.90;;;;;;5040090;28;20060;-53
2022/09/27 05:38:34;;;;;;;76.13;17.38;;;17.40;99.90;;;;;;4984939;28;20062;-54
2022/09/27 05:41:00;;;;;;;67.35;15.05;;;17.50;99.90;;;;;;5033541;28;20466;-54
2022/09/27 05:43:27;;;;;;;72.80;15.63;;;17.40;99.90;;;;;;5006944;28;20041;-53
2022/09/27 05:45:53;;;;;;;90.28;17.40;;;17.40;99.90;;;;;;5010527;28;20048;-54
2022/09/27 05:48:19;;;;;;;73.65;15.75;;;17.40;99.90;;;;;;5008875;28;20084;-55
2022/09/27 05:50:45;;;;;;;75.30;15.90;;;17.40;99.90;;;;;;5012020;28;20519;-54
2022/09/27 05:53:12;;;;;;;74.82;14.70;;;17.40;99.90;;;;;;5011163;28;20041;-54
2022/09/27 05:55:38;;;;;;;68.82;16.10;;;17.50;99.90;;;;;;5007238;28;20038;-53
2022/09/27 05:58:05;;;;;;;72.65;16.50;;;17.50;99.90;;;;;;5008965;28;20037;-53
2022/09/27 06:00:32;;;;;;;75.00;16.58;;;17.50;99.90;;;;;;5012576;28;20024;-56
2022/09/27 06:03:00;;;;;;;75.60;16.90;;;17.60;99.90;;;;;;5012815;28;20112;-53
2022/09/27 06:05:28;;;;;;;88.78;18.42;;;17.60;99.90;;;;;;5010225;28;20393;-53
2022/09/27 06:08:02;;;;;;;74.88;16.90;;;17.60;99.90;;;;;;5010839;28;20030;-54
2022/09/27 06:10:29;;;;;;;71.63;18.05;;;17.50;99.90;;;;;;5011146;28;20516;-54
2022/09/27 06:13:12;;;;;;;81.28;19.25;;;17.50;99.90;;;;;;5000865;28;20371;-54
2022/09/27 06:15:39;;;;;;;59.67;18.73;;;17.50;99.90;;;;;;5008675;28;20549;-54
2022/09/27 06:21:27;;;;;;;60.20;19.15;;;17.70;99.90;;;;;;5011009;28;20421;-53
2022/09/27 06:27:14;;;;;;;53.30;17.73;;;17.80;99.90;;;;;;4999747;28;20096;-53
2022/09/27 06:33:02;;;;;;;41.42;18.27;;;18.10;99.90;;;;;;5014052;28;20048;-53
2022/09/27 06:38:50;;;;;;;40.92;18.15;;;18.30;99.90;;;;;;5012387;28;20080;-54
2022/09/27 06:44:37;;;;;;;46.75;19.50;;;18.30;99.90;;;;;;5006152;28;20044;-53
2022/09/27 06:47:03;;;;;;;37.90;17.00;;;18.20;99.90;;;;;;5005239;28;20050;-55
2022/09/27 06:49:30;;;;;;;31.52;18.10;;;18.10;99.90;;;;;;5005563;28;20066;-53
2022/09/27 06:51:56;;;;;;;30.80;16.90;;;17.90;99.90;;;;;;5005292;28;20042;-53
2022/09/27 06:54:21;;;;;;;28.85;17.00;;;17.70;99.90;;;;;;5009229;28;20371;-54
2022/09/27 06:56:47;;;;;;;29.88;17.77;;;17.80;99.90;;;;;;5009389;28;20030;-54
2022/09/27 07:01:59;;;;;;;29.00;19.00;;;17.90;99.90;;;;;;5024066;28;20069;-53
2022/09/27 07:04:25;;;;;;;29.98;20.25;;;18.10;99.90;;;;;;5011028;28;20037;-53
2022/09/27 07:06:52;;;;;;;29.15;19.25;;;18.30;99.90;;;;;;5023624;28;20050;-53
2022/09/27 07:09:18;;;;;;;32.40;19.20;;;18.50;99.90;;;;;;5005909;28;20022;-53
2022/09/27 07:11:44;;;;;;;27.10;18.13;;;18.60;99.90;;;;;;5002950;28;20528;-53
2022/09/27 07:14:11;;;;;;;25.73;17.23;;;18.40;99.90;;;;;;5010091;28;20030;-53
2022/09/27 07:16:37;;;;;;;23.08;17.67;;;18.20;99.90;;;;;;5007806;28;20125;-53
2022/09/27 07:19:03;;;;;;;22.40;16.27;;;18.10;99.90;;;;;;5023394;28;20117;-53
2022/09/27 07:21:28;;;;;;;30.58;19.38;;;18.10;99.90;;;;;;5009328;28;20022;-53
2022/09/27 07:23:54;;;;;;;32.33;19.25;;;18.10;99.90;;;;;;5012019;28;20488;-54
2022/09/27 07:26:20;;;;;;;36.00;21.55;;;17.90;99.90;;;;;;5009113;28;20521;-54
2022/09/27 07:28:46;;;;;;;34.50;21.05;;;18.10;99.90;;;;;;5027573;28;20042;-54
2022/09/27 07:31:12;;;;;;;27.45;17.13;;;;;;;;;;5010223;28;20049;-53
2022/09/27 07:33:39;;;;;;;26.13;17.75;;;18.20;99.90;;;;;;5004250;28;20026;-53
2022/09/27 07:36:12;;;;;;;23.45;17.25;;;18.50;99.90;;;;;;5016366;28;20046;-53
2022/09/27 07:38:38;;;;;;;24.23;18.15;;;18.70;99.90;;;;;;5004799;28;20045;-53
2022/09/27 07:41:08;;;;;;;31.67;22.02;;;18.60;99.90;;;;;;5008383;28;20470;-53
2022/09/27 07:43:34;;;;;;;33.45;22.60;;;18.60;99.90;;;;;;5035153;28;20065;-55
2022/09/27 07:46:00;;;;;;;23.55;18.05;;;18.90;99.90;;;;;;5003927;28;22181;-54
2022/09/27 07:48:27;;;;;;;27.70;20.00;;;18.70;99.90;;;;;;5003489;28;20033;-53
2022/09/27 07:50:53;;;;;;;27.73;21.30;;;;;;;;;;5010586;28;20033;-53
2022/09/27 07:53:19;;;;;;;29.70;21.33;;;18.20;99.90;;;;;;5007297;28;20469;-52
2022/09/27 07:55:52;;;;;;;29.60;23.20;;;18.00;99.90;;;;;;5007696;28;20080;-53
2022/09/27 07:58:19;;;;;;;32.10;23.90;;;18.10;99.90;;;;;;5010598;28;20366;-52
2022/09/27 08:00:45;;;;;;;31.70;24.90;;;18.10;99.90;;;;;;5009877;28;21167;-50
2022/09/27 08:03:14;;;;;;;30.88;23.77;;;18.00;99.90;;;;;;5004141;28;20045;-50
2022/09/27 08:05:42;;;;;;;28.60;23.15;;;18.10;99.90;;;;;;5009225;28;20441;-51
2022/09/27 08:08:08;;;;;;;29.13;23.58;;;17.90;99.90;;;;;;5006972;28;20044;-50
2022/09/27 08:10:34;;;;;;;30.85;23.95;;;18.10;99.90;;;;;;5008435;28;20061;-50
2022/09/27 08:13:02;;;;;;;28.38;23.30;;;18.30;99.90;;;;;;5001930;28;20018;-50
2022/09/27 08:15:29;;;;;;;31.75;25.95;;;18.40;99.90;;;;;;4999304;28;20029;-50
2022/09/27 08:17:55;;;;;;;35.13;27.30;;;18.50;99.90;;;;;;5004611;28;20384;-50
2022/09/27 08:20:21;;;;;;;35.83;29.73;;;18.50;99.90;;;;;;5007108;28;20030;-49
2022/09/27 08:22:47;;;;;;;35.13;29.75;;;18.60;99.90;;;;;;5011361;28;20029;-50
2022/09/27 08:25:13;;;;;;;38.17;30.75;;;19.00;99.90;;;;;;5010972;28;20065;-50
2022/09/27 08:27:40;;;;;;;40.35;31.15;;;19.30;99.90;;;;;;5021374;28;20489;-53
2022/09/27 08:30:06;;;;;;;41.22;32.20;;;19.40;99.90;;;;;;5007052;28;20109;-50
2022/09/27 08:32:32;;;;;;;42.40;31.77;;;19.40;99.90;;;;;;4990454;28;20040;-50
2022/09/27 08:34:58;;;;;;;40.40;34.10;;;18.90;99.90;;;;;;5007273;28;20037;-50
2022/09/27 08:37:25;;;;;;;42.10;33.83;;;;;;;;;;4999824;28;20030;-50
2022/09/27 08:39:50;;;;;;;41.85;33.60;;;19.60;99.90;;;;;;5008737;28;20065;-50
2022/09/27 08:42:27;;;;;;;41.38;34.63;;;19.80;99.90;;;;;;5009233;28;20440;-50
2022/09/27 08:45:07;;;;;;;40.65;32.80;;;19.90;99.90;;;;;;5009293;28;20029;-50
2022/09/27 08:47:55;;;;;;;39.35;30.77;;;19.60;99.90;;;;;;5008168;28;20117;-49
2022/09/27 08:50:21;;;;;;;37.92;30.75;;;19.50;99.90;;;;;;5005748;28;20022;-50
2022/09/27 08:53:19;;;;;;;38.92;31.20;;;19.50;99.90;;;;;;5005883;28;20022;-50
2022/09/27 08:55:48;;;;;;;38.25;31.30;;;19.60;99.90;;;;;;5007001;28;20048;-49
2022/09/27 08:58:18;;;;;;;38.80;31.30;;;19.70;99.90;;;;;;5008645;28;20041;-50
2022/09/27 09:00:44;;;;;;;33.75;29.35;;;20.20;99.90;;;;;;5000000;28;20034;-50
2022/09/27 09:03:17;;;;;;;42.92;35.35;;;;;;;;;;5004316;28;20506;-50
2022/09/27 09:05:50;;;;;;;38.55;33.25;;;20.80;99.90;;;;;;5003248;28;20097;-49
2022/09/27 09:08:25;;;;;;;36.33;32.25;;;21.00;99.90;;;;;;5007635;28;20026;-49
2022/09/27 09:13:52;;;;;;;38.38;30.85;;;21.10;99.90;;;;;;4997683;28;20060;-49
2022/09/27 09:16:44;;;;;;;35.83;30.08;;;21.00;99.90;;;;;;5000982;28;20027;-49
2022/09/27 09:19:41;;;;;;;35.70;30.50;;;21.10;99.90;;;;;;5008859;28;20088;-49
2022/09/27 09:22:27;;;;;;;32.20;28.23;;;21.20;99.90;;;;;;5014428;28;20044;-50
2022/09/27 09:25:48;;;;;;;33.47;29.88;;;21.40;99.90;;;;;;5013606;28;20032;-50
2022/09/27 09:28:45;;;;;;;36.53;30.27;;;21.50;99.90;;;;;;4991718;28;20039;-50
2022/09/27 09:31:45;;;;;;;35.10;28.38;;;21.50;99.90;;;;;;4991326;28;20034;-49
2022/09/27 09:34:22;;;;;;;31.33;27.05;;;21.60;99.90;;;;;;4990867;28;20114;-50
2022/09/27 09:36:58;;;;;;;29.90;25.70;;;21.60;99.90;;;;;;4991193;28;20029;-49
2022/09/27 09:39:34;;;;;;;27.58;24.48;;;21.80;99.90;;;;;;4972343;28;20301;-50
2022/09/27 09:42:13;;;;;;;26.33;23.48;;;21.90;99.90;;;;;;4987955;28;20026;-50
2022/09/27 09:44:47;;;;;;;28.70;25.50;;;21.80;99.90;;;;;;4957064;28;20525;-51
2022/09/27 09:47:40;;;;;;;28.40;25.25;;;21.70;99.90;;;;;;4989674;28;20513;-53
2022/09/27 09:50:21;;;;;;;29.48;26.30;;;21.40;99.90;;;;;;4986373;28;20552;-50
2022/09/27 09:52:54;;;;;;;32.22;28.80;;;21.20;99.90;;;;;;4990986;28;20062;-55
2022/09/27 09:55:27;;;;;;;31.83;26.85;;;21.20;99.90;;;;;;4990212;28;20447;-54
2022/09/27 09:58:11;;;;;;;29.50;26.10;;;21.20;99.90;;;;;;4991119;28;20556;-54
2022/09/27 10:00:39;;;;;;;32.15;28.63;;;21.00;99.90;;;;;;4991252;28;20185;-55
2022/09/27 10:03:05;;;;;;;31.55;27.58;;;21.10;99.90;;;;;;4991296;28;20034;-52
2022/09/27 10:05:31;;;;;;;29.75;26.70;;;20.90;99.90;;;;;;5007452;28;20053;-51
2022/09/27 10:08:04;;;;;;;29.42;23.58;;;20.60;99.90;;;;;;5011820;28;20041;-55
2022/09/27 10:10:30;;;;;;;25.98;22.58;;;20.50;99.90;;;;;;5007539;28;20181;-50
2022/09/27 10:12:56;;;;;;;27.48;23.92;;;20.30;99.90;;;;;;5009660;28;20109;-51
2022/09/27 10:15:27;;;;;;;22.15;19.85;;;20.10;99.90;;;;;;5009458;28;20647;-53
2022/09/27 10:17:58;;;;;;;25.48;22.45;;;20.10;99.90;;;;;;5006662;28;20470;-52
2022/09/27 10:20:32;;;;;;;25.60;22.80;;;20.00;99.90;;;;;;5008888;28;20022;-55
2022/09/27 10:23:14;;;;;;;26.65;23.75;;;19.90;99.90;;;;;;5007320;28;20043;-52
2022/09/27 10:25:54;;;;;;;26.42;23.58;;;19.90;99.90;;;;;;5006837;28;20045;-53
2022/09/27 10:28:47;;;;;;;27.48;24.10;;;19.80;99.90;;;;;;5004705;28;20441;-54
2022/09/27 10:31:18;;;;;;;28.10;25.30;;;19.80;99.90;;;;;;5020128;28;20061;-48
2022/09/27 10:34:04;;;;;;;28.00;24.80;;;20.00;99.90;;;;;;5007473;28;20030;-52
2022/09/27 10:36:34;;;;;;;26.20;23.48;;;20.10;99.90;;;;;;5004089;28;20044;-48
2022/09/27 10:39:03;;;;;;;27.15;24.15;;;20.10;99.90;;;;;;5008068;28;20058;-54
2022/09/27 10:41:35;;;;;;;24.77;21.52;;;20.20;99.90;;;;;;5010216;28;20401;-55
2022/09/27 10:44:16;;;;;;;;;;;20.20;99.90;;;;;;5009029;28;20034;-53
2022/09/27 10:46:58;;;;;;;25.77;23.05;;;20.40;99.90;;;;;;5001936;28;19945;-57
2022/09/27 10:49:26;;;;;;;26.20;23.02;;;20.40;99.90;;;;;;5005101;28;20057;-55
2022/09/27 10:51:58;;;;;;;26.13;23.33;;;20.30;99.90;;;;;;5008151;28;20027;-57
2022/09/27 10:54:28;;;;;;;;;;;20.60;99.90;;;;;;5004475;28;20026;-54
2022/09/27 10:57:09;;;;;;;25.52;22.50;;;21.00;99.90;;;;;;5001203;28;19912;-55
2022/09/27 10:59:39;;;;;;;28.30;23.67;;;21.00;99.90;;;;;;5001402;28;20113;-52
2022/09/27 11:02:16;;;;;;;30.20;26.45;;;21.10;99.90;;;;;;5008461;28;20041;-53
2022/09/27 11:05:00;;;;;;;28.48;25.35;;;21.20;99.90;;;;;;5024597;28;20358;-56
2022/09/27 11:07:26;;;;;;;30.10;26.50;;;21.00;99.90;;;;;;5020217;28;20145;-52
2022/09/27 11:09:56;;;;;;;32.53;24.77;;;21.20;99.90;;;;;;5034499;28;20461;-53
2022/09/27 11:12:24;;;;;;;33.60;25.05;;;21.20;99.90;;;;;;5010517;28;20045;-56
2022/09/27 11:15:01;;;;;;;34.20;28.02;;;21.20;99.90;;;;;;5000813;28;20049;-57
2022/09/27 11:17:46;;;;;;;33.90;28.05;;;21.00;99.90;;;;;;5008406;28;20049;-55
2022/09/27 11:20:27;;;;;;;32.78;27.42;;;20.80;99.90;;;;;;5006156;28;20413;-58
2022/09/27 11:23:17;;;;;;;34.58;29.33;;;20.60;99.90;;;;;;5006051;28;20423;-51
2022/09/27 11:25:54;;;;;;;34.05;26.83;;;20.50;99.90;;;;;;5003243;28;20086;-54
2022/09/27 11:28:22;;;;;;;31.13;27.80;;;20.40;99.90;;;;;;5023660;28;20036;-54
2022/09/27 11:31:04;;;;;;;34.35;27.05;;;20.40;99.90;;;;;;4999276;28;20497;-52
2022/09/27 11:33:44;;;;;;;34.92;29.08;;;20.20;99.90;;;;;;4996290;28;20037;-51
2022/09/27 11:36:27;;;;;;;37.35;30.02;;;20.10;99.90;;;;;;5001031;28;20033;-55
2022/09/27 11:39:22;;;;;;;37.30;27.85;;;20.00;99.90;;;;;;5006125;28;20026;-56
2022/09/27 11:42:02;;;;;;;36.40;30.80;;;19.80;99.90;;;;;;5006417;28;20068;-51
2022/09/27 11:44:34;;;;;;;46.15;33.95;;;19.60;99.90;;;;;;5004058;28;20113;-55
2022/09/27 11:47:28;;;;;;;37.38;28.50;;;19.30;99.90;;;;;;5003502;28;20048;-55
2022/09/27 14:30:18;;;;;;;2.15;1.52;;;21.30;99.90;;;;;;5055682;27;20463;-57
2022/09/27 14:45:46;;;;;;;3.03;2.15;;;21.20;99.90;;;;;;5041826;27;20476;-57
2022/09/27 14:48:20;;;;;;;4.47;3.92;;;21.00;99.90;;;;;;5035624;28;20434;-54
2022/09/27 14:51:04;;;;;;;4.00;2.78;;;21.10;99.90;;;;;;5046343;28;20403;-53
2022/09/27 14:53:32;;;;;;;3.83;2.70;;;;;;;;;;5042014;28;20049;-56
2022/09/27 14:56:00;;;;;;;4.00;2.45;;;21.90;99.90;;;;;;5044013;28;20538;-53
2022/09/27 14:58:27;;;;;;;4.53;3.70;;;22.00;99.90;;;;;;5022399;28;20453;-56
2022/09/27 15:00:53;;;;;;;3.45;2.60;;;22.40;99.90;;;;;;5023364;28;20137;-56
2022/09/27 15:03:30;;;;;;;4.82;3.03;;;22.50;99.90;;;;;;4992235;28;20034;-54
2022/09/27 15:06:01;;;;;;;7.25;6.53;;;22.30;99.90;;;;;;5024297;28;20038;-54
2022/09/27 15:08:32;;;;;;;4.40;3.58;;;;;;;;;;5025322;28;20408;-57
2022/09/27 15:10:59;;;;;;;;;;;22.60;99.90;;;;;;5018897;28;20416;-54
2022/09/27 15:13:26;;;;;;;3.42;2.30;;;22.90;99.90;;;;;;5015763;28;19949;-56
2022/09/27 15:15:53;;;;;;;4.38;2.28;;;23.10;99.90;;;;;;5022246;28;20477;-57
2022/09/27 15:18:38;;;;;;;6.18;5.57;;;23.10;99.90;;;;;;5022935;28;20057;-57
2022/09/27 15:21:05;;;;;;;3.95;3.47;;;23.10;99.90;;;;;;5021851;28;20026;-55
2022/09/27 15:23:37;;;;;;;2.92;2.47;;;23.00;99.90;;;;;;5025799;28;20041;-58
2022/09/27 15:26:03;;;;;;;;;;;;;;;;;;5038820;28;20021;-57
2022/09/27 15:28:29;;;;;;;1.42;1.33;;;;;;;;;;5040297;28;19963;-55
2022/09/27 15:30:56;;;;;;;5.07;2.78;;;;;;;;;;5039373;28;20045;-53
2022/09/27 15:33:24;;;;;;;3.75;2.20;;;;;;;;;;5047531;28;20055;-55
2022/09/27 15:35:54;;;;;;;3.00;2.00;;;;;;;;;;5037148;28;20064;-57
2022/09/27 15:38:20;;;;;;;2.63;1.80;;;;;;;;;;5062078;28;20061;-58
2022/09/27 15:40:49;;;;;;;2.30;1.77;;;;;;;;;;5037753;28;20362;-54
2022/09/27 15:43:30;;;;;;;3.53;1.65;;;;;;;;;;5058636;28;20424;-54
2022/09/27 15:46:01;;;;;;;2.70;1.50;;;22.70;99.90;;;;;;5030012;28;20073;-57
2022/09/27 15:48:28;;;;;;;3.33;1.45;;;22.30;99.90;;;;;;5017374;28;20046;-55
2022/09/27 15:50:54;;;;;;;2.85;1.63;;;21.90;99.90;;;;;;5026596;28;20045;-57
2022/09/27 15:53:46;;;;;;;2.45;2.05;;;21.60;99.90;;;;;;5023663;28;20029;-58
2022/09/27 15:56:13;;;;;;;;;;;21.50;99.90;;;;;;5023728;28;20041;-54
2022/09/27 15:58:39;;;;;;;2.83;1.65;;;21.40;99.90;;;;;;5023779;28;19905;-57
2022/09/27 16:01:05;;;;;;;2.35;1.75;;;21.10;99.90;;;;;;5026983;28;20025;-58
2022/09/27 16:03:31;;;;;;;3.05;1.65;;;21.00;99.90;;;;;;5028552;28;20039;-54
2022/09/27 16:06:01;;;;;;;4.32;1.70;;;20.90;99.90;;;;;;5027327;28;20030;-53
2022/09/27 16:08:27;;;;;;;5.28;1.83;;;20.40;99.90;;;;;;5018315;28;20088;-56
2022/09/27 16:10:58;;;;;;;2.00;1.70;;;20.10;99.90;;;;;;5022627;28;20032;-55
2022/09/27 16:13:24;;;;;;;5.53;1.90;;;19.80;99.90;;;;;;5031278;28;20034;-50